Time;durP1;ratioP1;P1;durP2;ratioP2;P2;SDS_P1;SDS_P2;PMS_P1;PMS_P2;Temp;Humidity;BMP_temperature;BMP_pressure;BME280_temperature;BME280_humidity;BME280_pressure;Samples;Min_cycle;Max_cycle;Signal;HPM_P1;HPM_P2
2023/10/28 00:01:03;;;;;;;3.60;3.00;;;7.70;99.90;;;;;;5028183;28;20580;-61
2023/10/28 00:03:29;;;;;;;4.10;2.97;;;7.70;99.90;;;;;;5030436;28;20562;-62
2023/10/28 00:05:55;;;;;;;3.83;2.75;;;7.70;99.90;;;;;;5028811;28;20034;-61
2023/10/28 00:08:21;;;;;;;3.55;2.70;;;7.70;99.90;;;;;;5029869;28;20056;-63
2023/10/28 00:10:48;;;;;;;4.18;2.88;;;7.70;99.90;;;;;;5032391;28;20028;-62
2023/10/28 00:13:14;;;;;;;4.88;2.88;;;7.70;99.90;;;;;;5028922;28;20395;-63
2023/10/28 00:15:40;;;;;;;3.95;3.08;;;7.70;99.90;;;;;;5026626;28;20020;-63
2023/10/28 00:18:08;;;;;;;4.68;2.97;;;7.70;99.90;;;;;;5029151;28;20036;-60
2023/10/28 00:20:34;;;;;;;2.67;2.47;;;7.70;99.90;;;;;;5018295;28;20019;-61
2023/10/28 00:23:00;;;;;;;4.15;2.75;;;7.70;99.90;;;;;;5023182;28;20025;-60
2023/10/28 00:25:29;;;;;;;3.50;2.97;;;7.70;99.90;;;;;;5025797;28;20540;-62
2023/10/28 00:27:55;;;;;;;5.68;2.20;;;7.70;99.90;;;;;;5025060;28;20409;-62
2023/10/28 00:30:23;;;;;;;3.15;2.70;;;7.70;99.90;;;;;;5025320;28;20108;-60
2023/10/28 00:32:50;;;;;;;4.22;2.28;;;7.70;99.90;;;;;;5021612;28;20476;-61
2023/10/28 00:35:16;;;;;;;4.78;3.17;;;7.70;99.90;;;;;;5024177;28;20026;-62
2023/10/28 00:37:42;;;;;;;4.03;2.65;;;7.60;99.90;;;;;;5020471;28;20025;-63
2023/10/28 00:40:08;;;;;;;3.65;2.92;;;7.70;99.90;;;;;;5024326;28;20508;-61
2023/10/28 00:42:38;;;;;;;4.80;2.92;;;7.70;99.90;;;;;;5030980;28;20044;-63
2023/10/28 00:45:08;;;;;;;4.20;2.72;;;7.70;99.90;;;;;;5027378;28;20398;-59
2023/10/28 00:47:38;;;;;;;3.67;2.85;;;7.70;99.90;;;;;;5026790;28;20018;-62
2023/10/28 00:50:09;;;;;;;3.33;2.88;;;7.60;99.90;;;;;;5024914;28;20104;-60
2023/10/28 00:52:35;;;;;;;3.03;2.58;;;7.60;99.90;;;;;;5024186;28;20521;-62
2023/10/28 00:55:01;;;;;;;2.83;2.50;;;7.60;99.90;;;;;;5027359;28;20131;-62
2023/10/28 00:57:27;;;;;;;2.50;2.30;;;7.60;99.90;;;;;;5027957;28;20113;-61
2023/10/28 00:59:53;;;;;;;4.60;3.13;;;7.60;99.90;;;;;;5020965;28;20049;-62
2023/10/28 01:02:19;;;;;;;3.83;2.85;;;7.60;99.90;;;;;;5027632;28;20053;-62
2023/10/28 01:04:45;;;;;;;3.80;3.10;;;7.60;99.90;;;;;;5029620;28;20521;-63
2023/10/28 01:07:10;;;;;;;3.90;3.10;;;7.60;99.90;;;;;;5029113;28;20400;-62
2023/10/28 01:09:46;;;;;;;4.55;3.10;;;7.60;99.90;;;;;;5029248;28;20037;-63
2023/10/28 01:12:15;;;;;;;3.42;2.90;;;7.60;99.90;;;;;;5029111;28;20107;-62
2023/10/28 01:14:41;;;;;;;3.90;2.83;;;7.60;99.90;;;;;;5025798;28;20051;-62
2023/10/28 01:17:08;;;;;;;5.28;3.33;;;7.60;99.90;;;;;;5026699;28;20044;-63
2023/10/28 01:19:34;;;;;;;5.13;3.42;;;7.70;99.90;;;;;;5024878;28;20025;-63
2023/10/28 01:22:00;;;;;;;4.38;3.00;;;7.60;99.90;;;;;;5027603;28;20037;-61
2023/10/28 01:24:28;;;;;;;4.03;3.28;;;7.60;99.90;;;;;;5025488;28;20198;-62
2023/10/28 01:26:54;;;;;;;3.72;2.85;;;7.60;99.90;;;;;;5029482;28;20435;-59
2023/10/28 01:29:19;;;;;;;5.28;3.08;;;7.60;99.90;;;;;;5027571;28;20124;-63
2023/10/28 01:31:45;;;;;;;3.75;2.97;;;7.60;99.90;;;;;;5023333;28;20041;-63
2023/10/28 01:34:10;;;;;;;4.95;3.38;;;7.60;99.90;;;;;;5028626;28;20075;-63
2023/10/28 01:36:36;;;;;;;4.55;3.53;;;7.60;99.90;;;;;;5029850;28;20064;-60
2023/10/28 01:39:01;;;;;;;5.50;3.60;;;7.70;99.90;;;;;;5028023;28;20633;-62
2023/10/28 01:41:27;;;;;;;3.95;3.53;;;7.60;99.90;;;;;;5028310;28;20034;-63
2023/10/28 01:43:53;;;;;;;4.40;3.10;;;7.60;99.90;;;;;;5030342;28;20027;-63
2023/10/28 01:46:18;;;;;;;3.30;3.00;;;7.60;99.90;;;;;;5023890;28;20037;-60
2023/10/28 01:48:44;;;;;;;4.25;3.05;;;7.60;99.90;;;;;;5030229;28;20043;-61
2023/10/28 01:51:10;;;;;;;3.78;2.97;;;7.60;99.90;;;;;;5023565;28;20406;-62
2023/10/28 01:53:36;;;;;;;3.45;2.85;;;7.60;99.90;;;;;;5030244;28;20199;-61
2023/10/28 01:56:01;;;;;;;3.00;2.70;;;7.60;99.90;;;;;;5025981;28;20448;-62
2023/10/28 01:58:28;;;;;;;3.63;2.92;;;7.60;99.90;;;;;;5031378;28;20053;-61
2023/10/28 02:00:54;;;;;;;3.13;2.78;;;7.60;99.90;;;;;;5028852;28;20108;-61
2023/10/28 02:03:20;;;;;;;3.88;2.97;;;7.60;99.90;;;;;;5030513;28;20434;-63
2023/10/28 02:05:46;;;;;;;3.42;3.03;;;7.60;99.90;;;;;;5030050;28;20017;-63
2023/10/28 02:08:12;;;;;;;5.03;2.78;;;7.60;99.90;;;;;;5027928;28;20033;-62
2023/10/28 02:10:37;;;;;;;4.05;3.30;;;7.60;99.90;;;;;;5028492;28;20047;-63
2023/10/28 02:13:04;;;;;;;2.80;2.30;;;7.60;99.90;;;;;;5026449;28;20049;-62
2023/10/28 02:15:30;;;;;;;3.88;2.95;;;7.50;99.90;;;;;;5025150;28;20029;-64
2023/10/28 02:17:55;;;;;;;3.33;2.47;;;7.50;99.90;;;;;;5028496;28;20033;-63
2023/10/28 02:20:21;;;;;;;4.43;2.85;;;7.60;99.90;;;;;;5027033;28;20041;-62
2023/10/28 02:22:48;;;;;;;4.40;3.13;;;7.60;99.90;;;;;;5027938;28;20029;-61
2023/10/28 02:25:14;;;;;;;4.43;2.97;;;7.50;99.90;;;;;;5028336;28;20113;-61
2023/10/28 02:27:40;;;;;;;3.25;2.78;;;7.60;99.90;;;;;;5030262;28;20101;-60
2023/10/28 02:30:11;;;;;;;4.20;2.95;;;7.50;99.90;;;;;;5023198;28;20501;-61
2023/10/28 02:32:37;;;;;;;3.55;3.25;;;7.60;99.90;;;;;;5020578;28;20026;-60
2023/10/28 02:35:03;;;;;;;4.75;3.40;;;7.50;99.90;;;;;;5025694;28;20104;-63
2023/10/28 02:37:29;;;;;;;3.28;2.58;;;7.50;99.90;;;;;;5028237;28;20412;-61
2023/10/28 02:39:55;;;;;;;3.75;2.65;;;7.50;99.90;;;;;;5022651;28;20029;-62
2023/10/28 02:42:22;;;;;;;3.85;2.92;;;7.50;99.90;;;;;;5026355;28;20018;-60
2023/10/28 02:44:48;;;;;;;3.55;2.78;;;7.50;99.90;;;;;;5020062;28;20028;-62
2023/10/28 02:47:15;;;;;;;5.18;3.08;;;7.50;99.90;;;;;;5024374;28;20483;-62
2023/10/28 02:49:40;;;;;;;4.22;2.92;;;7.50;99.90;;;;;;5026540;28;20037;-62
2023/10/28 02:52:06;;;;;;;3.83;2.90;;;7.50;99.90;;;;;;5026213;28;20445;-62
2023/10/28 02:54:32;;;;;;;3.90;3.15;;;7.50;99.90;;;;;;5028147;28;20109;-60
2023/10/28 02:56:58;;;;;;;4.32;3.35;;;7.50;99.90;;;;;;5024986;28;20029;-62
2023/10/28 02:59:23;;;;;;;2.75;2.50;;;7.50;99.90;;;;;;5023525;28;20021;-62
2023/10/28 03:01:49;;;;;;;5.47;3.25;;;7.50;99.90;;;;;;5026590;28;20082;-61
2023/10/28 03:04:15;;;;;;;4.40;3.13;;;7.50;99.90;;;;;;5023233;28;20034;-58
2023/10/28 03:06:41;;;;;;;4.97;3.10;;;7.50;99.90;;;;;;5026218;28;20033;-58
2023/10/28 03:09:06;;;;;;;5.63;3.10;;;7.50;99.90;;;;;;5027119;28;20474;-61
2023/10/28 03:11:32;;;;;;;3.35;3.00;;;7.50;99.90;;;;;;5029970;28;20033;-63
2023/10/28 03:13:57;;;;;;;4.90;3.08;;;7.50;99.90;;;;;;5028942;28;20030;-59
2023/10/28 03:16:24;;;;;;;4.22;3.40;;;7.50;99.90;;;;;;5028501;28;20029;-61
2023/10/28 03:18:50;;;;;;;3.92;3.25;;;7.50;99.90;;;;;;5029681;28;20017;-61
2023/10/28 03:21:15;;;;;;;3.95;3.20;;;7.50;99.90;;;;;;5027830;28;20394;-60
2023/10/28 03:23:41;;;;;;;5.78;3.25;;;7.50;99.90;;;;;;5026261;28;20517;-61
2023/10/28 03:26:07;;;;;;;4.32;3.30;;;7.50;99.90;;;;;;5027729;28;20152;-59
2023/10/28 03:28:32;;;;;;;3.80;3.03;;;7.50;99.90;;;;;;5027090;28;20033;-62
2023/10/28 03:30:58;;;;;;;4.35;3.40;;;7.50;99.90;;;;;;5028201;28;20088;-59
2023/10/28 03:33:23;;;;;;;8.57;3.90;;;7.50;99.90;;;;;;5024947;28;20026;-59
2023/10/28 03:35:49;;;;;;;4.13;3.65;;;7.50;99.90;;;;;;5026932;28;20021;-60
2023/10/28 03:38:14;;;;;;;5.40;3.58;;;7.50;99.90;;;;;;5028920;28;20103;-60
2023/10/28 03:40:40;;;;;;;4.03;3.38;;;7.50;99.90;;;;;;5029972;28;20032;-61
2023/10/28 03:43:06;;;;;;;5.72;4.03;;;7.50;99.90;;;;;;5028804;28;20029;-59
2023/10/28 03:45:31;;;;;;;5.68;3.53;;;7.60;99.90;;;;;;5029599;28;20493;-60
2023/10/28 03:47:57;;;;;;;4.50;3.55;;;7.50;99.90;;;;;;5029573;28;20026;-61
2023/10/28 03:50:24;;;;;;;4.95;4.00;;;7.50;99.90;;;;;;5029142;28;20219;-62
2023/10/28 03:52:50;;;;;;;5.47;3.65;;;7.50;99.90;;;;;;5029358;28;20021;-62
2023/10/28 03:55:16;;;;;;;6.22;4.07;;;7.50;99.90;;;;;;5028170;28;20055;-58
2023/10/28 03:57:42;;;;;;;4.68;4.25;;;7.50;99.90;;;;;;5029600;28;20017;-59
2023/10/28 04:00:11;;;;;;;5.00;3.80;;;7.50;99.90;;;;;;5028523;28;20493;-60
2023/10/28 04:02:36;;;;;;;5.70;4.28;;;7.50;99.90;;;;;;5028517;28;20324;-61
2023/10/28 04:05:03;;;;;;;5.40;3.90;;;7.50;99.90;;;;;;5025946;28;20092;-61
2023/10/28 04:07:28;;;;;;;6.30;4.47;;;7.50;99.90;;;;;;5029122;28;20017;-61
2023/10/28 04:09:54;;;;;;;7.93;4.45;;;7.50;99.90;;;;;;5026656;28;20044;-61
2023/10/28 04:12:19;;;;;;;4.45;4.00;;;7.50;99.90;;;;;;5027238;28;20048;-59
2023/10/28 04:14:45;;;;;;;5.65;4.03;;;7.50;99.90;;;;;;5026784;28;20460;-59
2023/10/28 04:17:11;;;;;;;5.53;4.32;;;7.50;99.90;;;;;;5019025;28;20394;-61
2023/10/28 04:19:37;;;;;;;5.97;4.60;;;7.50;99.90;;;;;;5028350;28;20021;-59
2023/10/28 04:22:02;;;;;;;5.22;4.10;;;7.50;99.90;;;;;;5024649;28;20080;-61
2023/10/28 04:24:28;;;;;;;5.95;4.32;;;7.50;99.90;;;;;;5028976;28;20031;-62
2023/10/28 04:26:54;;;;;;;4.65;4.15;;;7.50;99.90;;;;;;5029576;28;20436;-61
2023/10/28 04:29:20;;;;;;;5.47;4.32;;;7.50;99.90;;;;;;5028184;28;20285;-62
2023/10/28 04:31:45;;;;;;;5.10;3.95;;;7.50;99.90;;;;;;5028337;28;20035;-63
2023/10/28 04:34:11;;;;;;;6.15;4.75;;;7.50;99.90;;;;;;5027925;28;20044;-62
2023/10/28 04:36:37;;;;;;;5.47;3.80;;;7.50;99.90;;;;;;5028537;28;20021;-62
2023/10/28 04:39:02;;;;;;;4.88;3.85;;;7.50;99.90;;;;;;5026050;28;20032;-62
2023/10/28 04:41:28;;;;;;;5.45;4.30;;;7.50;99.90;;;;;;5024299;28;20021;-62
2023/10/28 04:43:54;;;;;;;7.25;4.30;;;7.50;99.90;;;;;;5026217;28;20022;-63
2023/10/28 04:46:19;;;;;;;6.25;3.90;;;7.50;99.90;;;;;;5027412;28;20030;-62
2023/10/28 04:48:46;;;;;;;6.28;4.22;;;7.50;99.90;;;;;;5027923;28;20052;-61
2023/10/28 04:51:13;;;;;;;6.63;4.78;;;7.50;99.90;;;;;;5023806;28;20025;-62
2023/10/28 04:53:39;;;;;;;6.10;4.57;;;7.50;99.90;;;;;;5027295;28;20024;-60
2023/10/28 04:56:08;;;;;;;5.50;4.65;;;7.50;99.90;;;;;;5026969;28;20418;-62
2023/10/28 04:58:34;;;;;;;4.60;4.20;;;7.50;99.90;;;;;;5025081;28;20084;-63
2023/10/28 05:00:59;;;;;;;4.45;4.03;;;7.50;99.90;;;;;;5026569;28;20452;-62
2023/10/28 05:03:25;;;;;;;5.60;4.40;;;7.50;99.90;;;;;;5026916;28;20025;-62
2023/10/28 05:05:50;;;;;;;5.68;4.25;;;7.50;99.90;;;;;;5026597;28;20040;-61
2023/10/28 05:08:16;;;;;;;6.57;4.32;;;7.50;99.90;;;;;;5026861;28;20041;-62
2023/10/28 05:10:41;;;;;;;4.80;4.07;;;7.50;99.90;;;;;;5026442;28;20030;-62
2023/10/28 05:13:07;;;;;;;6.97;4.50;;;7.50;99.90;;;;;;5026091;28;20057;-61
2023/10/28 05:15:33;;;;;;;5.32;4.22;;;7.50;99.90;;;;;;5001040;22;20042;-85
2023/10/28 05:17:58;;;;;;;5.53;4.45;;;7.50;99.90;;;;;;4994721;28;20017;-84
2023/10/28 05:20:24;;;;;;;5.47;4.30;;;7.50;99.90;;;;;;5002313;28;20029;-84
2023/10/28 05:22:50;;;;;;;4.55;4.15;;;7.50;99.90;;;;;;4989276;28;20049;-83
2023/10/28 05:25:15;;;;;;;4.80;4.03;;;7.50;99.90;;;;;;4990534;28;20022;-83
2023/10/28 05:27:41;;;;;;;5.68;3.65;;;7.50;99.90;;;;;;4990493;28;20124;-84
2023/10/28 05:30:10;;;;;;;4.78;4.13;;;7.50;99.90;;;;;;4993712;28;20019;-83
2023/10/28 05:32:36;;;;;;;8.00;4.55;;;7.50;99.90;;;;;;5002101;28;20026;-84
2023/10/28 05:35:02;;;;;;;5.75;4.78;;;7.50;99.90;;;;;;4993067;28;20045;-84
2023/10/28 05:37:28;;;;;;;7.70;4.53;;;7.50;99.90;;;;;;4988775;28;20026;-83
2023/10/28 05:39:56;;;;;;;5.20;4.25;;;7.50;99.90;;;;;;4990706;28;20109;-84
2023/10/28 05:42:23;;;;;;;5.65;4.75;;;7.50;99.90;;;;;;4989112;28;20034;-83
2023/10/28 05:44:49;;;;;;;8.30;4.47;;;7.50;99.90;;;;;;4990767;28;20031;-83
2023/10/28 05:47:16;;;;;;;6.05;4.15;;;7.50;99.90;;;;;;5003268;28;20133;-84
2023/10/28 05:49:42;;;;;;;6.10;4.32;;;7.50;99.90;;;;;;4991613;28;20084;-84
2023/10/28 05:52:09;;;;;;;6.05;4.55;;;7.50;99.90;;;;;;4994509;28;20027;-83
2023/10/28 05:54:34;;;;;;;5.90;4.22;;;7.50;99.90;;;;;;4998264;28;20068;-84
2023/10/28 05:57:00;;;;;;;6.13;4.60;;;7.50;99.90;;;;;;4991976;28;20054;-83
2023/10/28 05:59:26;;;;;;;5.40;4.55;;;7.50;99.90;;;;;;4994165;28;20089;-84
2023/10/28 06:01:51;;;;;;;5.22;4.30;;;7.50;99.90;;;;;;4991909;28;20030;-84
2023/10/28 06:04:17;;;;;;;5.10;4.10;;;7.50;99.90;;;;;;4997683;28;20041;-84
2023/10/28 06:06:43;;;;;;;6.78;4.70;;;7.50;99.90;;;;;;4998633;28;20030;-84
2023/10/28 06:09:11;;;;;;;6.03;4.20;;;7.50;99.90;;;;;;4984370;28;20029;-85
2023/10/28 06:11:39;;;;;;;7.97;5.18;;;7.50;99.90;;;;;;4982693;28;20038;-84
2023/10/28 06:14:05;;;;;;;5.28;3.92;;;7.50;99.90;;;;;;4987984;28;20030;-83
2023/10/28 06:16:30;;;;;;;6.05;3.97;;;7.50;99.90;;;;;;4999919;28;20116;-84
2023/10/28 06:18:56;;;;;;;5.20;4.07;;;7.50;99.90;;;;;;4997003;28;20057;-84
2023/10/28 06:21:22;;;;;;;5.65;4.38;;;7.50;99.90;;;;;;4994212;28;20018;-84
2023/10/28 06:23:48;;;;;;;5.57;4.13;;;7.50;99.90;;;;;;4994085;28;20501;-83
2023/10/28 06:26:13;;;;;;;7.47;4.18;;;7.50;99.90;;;;;;4991747;28;20284;-84
2023/10/28 06:28:39;;;;;;;6.68;3.70;;;7.50;99.90;;;;;;4989734;28;20030;-84
2023/10/28 06:31:04;;;;;;;6.97;3.92;;;7.50;99.90;;;;;;4985468;28;20030;-84
2023/10/28 06:33:30;;;;;;;5.15;3.83;;;7.50;99.90;;;;;;4997371;28;20030;-84
2023/10/28 06:35:56;;;;;;;6.07;4.00;;;7.50;99.90;;;;;;4993161;28;20030;-83
2023/10/28 06:38:25;;;;;;;4.85;3.97;;;7.50;99.90;;;;;;5008524;28;20133;-84
2023/10/28 06:40:51;;;;;;;5.38;3.70;;;7.50;99.90;;;;;;5003444;28;20025;-84
2023/10/28 06:43:17;;;;;;;5.75;4.00;;;7.50;99.90;;;;;;4990463;28;20482;-84
2023/10/28 06:45:43;;;;;;;6.03;3.78;;;7.50;99.90;;;;;;4999945;28;20019;-84
2023/10/28 06:48:09;;;;;;;5.78;3.53;;;7.50;99.90;;;;;;4995396;28;20073;-84
2023/10/28 06:50:35;;;;;;;4.85;3.88;;;7.60;99.90;;;;;;4995419;28;20040;-85
2023/10/28 06:53:00;;;;;;;4.95;4.05;;;7.60;99.90;;;;;;5000308;28;20038;-85
2023/10/28 06:55:29;;;;;;;6.03;4.00;;;7.60;99.90;;;;;;4995587;28;20254;-85
2023/10/28 06:57:55;;;;;;;4.90;3.42;;;7.60;99.90;;;;;;4995459;28;20053;-84
2023/10/28 07:00:26;;;;;;;4.53;3.63;;;7.60;99.90;;;;;;4995444;28;20101;-84
2023/10/28 07:02:52;;;;;;;5.75;3.67;;;7.60;99.90;;;;;;4998483;28;20021;-84
2023/10/28 07:05:18;;;;;;;5.47;3.75;;;7.60;99.90;;;;;;4989857;28;20443;-86
2023/10/28 07:07:44;;;;;;;5.63;3.85;;;7.60;99.90;;;;;;5000090;28;20084;-85
2023/10/28 07:10:10;;;;;;;4.72;3.70;;;7.60;99.90;;;;;;4989399;28;20034;-83
2023/10/28 07:12:38;;;;;;;6.20;3.15;;;7.60;99.90;;;;;;4995504;28;20076;-83
2023/10/28 07:15:03;;;;;;;6.18;3.65;;;7.60;99.90;;;;;;4990707;28;20030;-83
2023/10/28 07:17:29;;;;;;;5.50;3.05;;;7.60;99.90;;;;;;4992444;28;20085;-83
2023/10/28 07:19:55;;;;;;;6.07;4.35;;;7.60;99.90;;;;;;4999556;28;20113;-84
2023/10/28 07:22:20;;;;;;;5.90;3.72;;;7.60;99.90;;;;;;4995071;28;20027;-85
2023/10/28 07:24:47;;;;;;;5.75;3.33;;;7.60;99.90;;;;;;4994799;28;20030;-83
2023/10/28 07:27:12;;;;;;;4.45;3.80;;;7.60;99.90;;;;;;5001967;28;20030;-84
2023/10/28 07:29:38;;;;;;;5.53;3.40;;;7.60;99.90;;;;;;4992134;28;20057;-85
2023/10/28 07:32:05;;;;;;;4.20;3.58;;;7.60;99.90;;;;;;5000317;28;20023;-84
2023/10/28 07:34:31;;;;;;;6.00;3.83;;;7.60;99.90;;;;;;4996735;28;20022;-85
2023/10/28 07:37:00;;;;;;;4.22;3.63;;;7.60;99.90;;;;;;4998503;28;20028;-83
2023/10/28 07:39:26;;;;;;;7.15;3.95;;;7.60;99.90;;;;;;4991614;28;20053;-83
2023/10/28 07:41:53;;;;;;;4.53;3.63;;;7.60;99.90;;;;;;4990376;28;20639;-84
2023/10/28 07:44:19;;;;;;;4.43;3.17;;;7.60;99.90;;;;;;4990403;28;20125;-83
2023/10/28 07:46:46;;;;;;;5.68;3.35;;;7.60;99.90;;;;;;4997042;28;20129;-84
2023/10/28 07:49:12;;;;;;;5.22;4.00;;;7.70;99.90;;;;;;4993515;28;20028;-83
2023/10/28 07:51:38;;;;;;;6.57;4.55;;;7.70;99.90;;;;;;4991117;28;20038;-83
2023/10/28 07:54:04;;;;;;;6.80;4.45;;;7.70;99.90;;;;;;4990164;28;20093;-85
2023/10/28 07:56:29;;;;;;;5.57;4.60;;;7.70;99.90;;;;;;4990025;28;20049;-84
2023/10/28 07:58:59;;;;;;;6.20;4.32;;;7.70;99.90;;;;;;4991606;28;20053;-83
2023/10/28 08:01:25;;;;;;;5.47;4.20;;;7.70;99.90;;;;;;5006805;28;20022;-85
2023/10/28 08:03:51;;;;;;;7.82;4.88;;;7.70;99.90;;;;;;4997533;28;20084;-84
2023/10/28 08:06:19;;;;;;;5.93;4.65;;;7.70;99.90;;;;;;5001199;28;20038;-84
2023/10/28 08:08:45;;;;;;;5.38;3.92;;;7.70;99.90;;;;;;5001400;28;20022;-84
2023/10/28 08:11:13;;;;;;;5.97;4.20;;;7.70;99.90;;;;;;5003171;28;20379;-84
2023/10/28 08:13:39;;;;;;;7.32;4.43;;;7.80;99.90;;;;;;4994500;28;20030;-85
2023/10/28 08:16:09;;;;;;;7.13;4.45;;;7.80;99.90;;;;;;4990389;28;20027;-87
2023/10/28 08:18:35;;;;;;;9.40;5.05;;;7.80;99.90;;;;;;4992580;28;20022;-85
2023/10/28 08:21:01;;;;;;;7.20;4.82;;;7.80;99.90;;;;;;4994427;28;20030;-83
2023/10/28 08:23:28;;;;;;;6.07;4.40;;;7.80;99.90;;;;;;5003967;28;20033;-85
2023/10/28 08:25:55;;;;;;;6.35;4.68;;;7.80;99.90;;;;;;4994312;28;20501;-84
2023/10/28 08:28:20;;;;;;;8.73;5.60;;;7.80;99.90;;;;;;4991981;28;20037;-83
2023/10/28 08:30:46;;;;;;;7.43;4.78;;;7.80;99.90;;;;;;4994126;28;20034;-84
2023/10/28 08:33:11;;;;;;;11.20;5.38;;;7.80;99.90;;;;;;4991828;28;20054;-84
2023/10/28 08:35:37;;;;;;;9.23;5.25;;;7.80;99.90;;;;;;4994334;28;20137;-83
2023/10/28 08:38:05;;;;;;;7.22;5.15;;;7.80;99.90;;;;;;4995525;28;20681;-83
2023/10/28 08:40:31;;;;;;;7.30;5.55;;;7.80;99.90;;;;;;4999700;28;20014;-83
2023/10/28 08:42:58;;;;;;;7.88;5.07;;;7.80;99.90;;;;;;4993079;28;20033;-84
2023/10/28 08:45:25;;;;;;;7.93;5.63;;;7.80;99.90;;;;;;4994826;28;20026;-85
2023/10/28 08:47:51;;;;;;;7.45;5.43;;;7.80;99.90;;;;;;4991300;28;20018;-84
2023/10/28 08:50:19;;;;;;;8.52;5.45;;;7.80;99.90;;;;;;4995166;28;20027;-84
2023/10/28 08:52:47;;;;;;;8.35;5.32;;;7.90;99.90;;;;;;4995238;28;20397;-84
2023/10/28 08:55:12;;;;;;;7.95;5.90;;;7.90;99.90;;;;;;4993679;28;20034;-83
2023/10/28 08:57:45;;;;;;;8.15;5.72;;;7.90;99.90;;;;;;4992759;28;20029;-86
2023/10/28 09:00:14;;;;;;;7.95;5.18;;;7.90;99.90;;;;;;4994076;28;20072;-83
2023/10/28 09:02:49;;;;;;;8.05;5.13;;;7.90;99.90;;;;;;4996566;28;20382;-84
2023/10/28 09:05:16;;;;;;;8.30;5.53;;;8.00;99.90;;;;;;4985899;28;20026;-84
2023/10/28 09:07:45;;;;;;;9.32;5.70;;;8.00;99.90;;;;;;4994636;28;20030;-85
2023/10/28 09:10:12;;;;;;;7.72;5.05;;;8.00;99.90;;;;;;4987966;28;20026;-84
2023/10/28 09:12:38;;;;;;;8.45;5.55;;;8.00;99.90;;;;;;4997684;28;20025;-85
2023/10/28 09:15:05;;;;;;;9.63;6.47;;;8.10;99.90;;;;;;4988032;28;20443;-85
2023/10/28 09:17:30;;;;;;;9.00;5.82;;;8.10;99.90;;;;;;4996155;28;20026;-84
2023/10/28 09:20:00;;;;;;;8.18;5.70;;;8.10;99.90;;;;;;4991118;28;20026;-83
2023/10/28 09:22:26;;;;;;;10.43;6.38;;;8.20;99.90;;;;;;4992169;28;20747;-84
2023/10/28 09:24:53;;;;;;;11.48;5.78;;;8.10;99.90;;;;;;4994080;28;20126;-83
2023/10/28 09:27:19;;;;;;;9.23;6.05;;;8.20;99.90;;;;;;4989297;28;20030;-83
2023/10/28 09:29:45;;;;;;;8.48;5.97;;;8.20;99.90;;;;;;4990207;28;20031;-84
2023/10/28 09:32:11;;;;;;;9.90;6.35;;;8.20;99.90;;;;;;4992992;28;20038;-84
2023/10/28 09:34:41;;;;;;;7.85;5.85;;;8.20;99.90;;;;;;5001436;28;20049;-84
2023/10/28 09:37:09;;;;;;;15.65;7.22;;;8.30;99.90;;;;;;4992568;28;20080;-84
2023/10/28 09:39:36;;;;;;;10.80;6.53;;;8.30;99.90;;;;;;4999534;28;20034;-84
2023/10/28 09:42:02;;;;;;;8.73;6.25;;;8.40;99.90;;;;;;4990172;28;20073;-84
2023/10/28 09:44:29;;;;;;;7.75;5.97;;;8.30;99.90;;;;;;4989151;28;20030;-86
2023/10/28 09:47:03;;;;;;;10.02;7.00;;;8.40;99.90;;;;;;5014794;28;20019;-85
2023/10/28 09:49:30;;;;;;;9.40;6.47;;;8.40;99.90;;;;;;5014278;28;20026;-85
2023/10/28 09:52:17;;;;;;;9.48;6.65;;;8.40;99.90;;;;;;4993965;28;20121;-86
2023/10/28 09:54:43;;;;;;;10.25;6.30;;;8.40;99.90;;;;;;5002001;28;20490;-85
2023/10/28 09:57:10;;;;;;;9.05;6.35;;;8.40;99.90;;;;;;5006312;28;20026;-85
2023/10/28 09:59:40;;;;;;;8.68;5.57;;;8.40;99.90;;;;;;4993301;28;20026;-87
2023/10/28 10:02:51;;;;;;;9.68;5.88;;;8.40;99.90;;;;;;4990370;28;20026;-86
2023/10/28 10:05:25;;;;;;;8.32;5.55;;;8.40;99.90;;;;;;5009950;28;20026;-85
2023/10/28 10:07:52;;;;;;;9.80;5.65;;;8.40;99.90;;;;;;4994867;28;20025;-84
2023/10/28 10:10:20;;;;;;;9.90;6.38;;;8.40;99.90;;;;;;4991095;28;20037;-84
2023/10/28 10:12:50;;;;;;;11.80;7.63;;;8.40;99.90;;;;;;4994592;28;20478;-84
2023/10/28 10:15:19;;;;;;;11.43;6.38;;;8.40;99.90;;;;;;4990248;28;20038;-85
2023/10/28 10:18:11;;;;;;;10.70;6.85;;;8.40;99.90;;;;;;4994851;28;20106;-84
2023/10/28 10:20:43;;;;;;;11.40;6.93;;;8.40;99.90;;;;;;4992399;28;20030;-85
2023/10/28 10:23:09;;;;;;;11.85;6.97;;;8.40;99.90;;;;;;4996869;28;20033;-88
2023/10/28 10:25:43;;;;;;;9.55;6.13;;;8.40;99.90;;;;;;5002526;28;20049;-84
2023/10/28 10:28:19;;;;;;;10.93;7.50;;;8.50;99.90;;;;;;4991725;28;20493;-84
2023/10/28 10:30:45;;;;;;;10.27;6.93;;;8.50;99.90;;;;;;4992486;28;20027;-83
2023/10/28 10:33:11;;;;;;;10.93;6.63;;;8.50;99.90;;;;;;4993055;28;20038;-85
2023/10/28 10:35:37;;;;;;;12.35;6.43;;;8.50;99.90;;;;;;4992104;28;20109;-84
2023/10/28 10:38:13;;;;;;;9.85;6.47;;;8.50;99.90;;;;;;4995980;28;20018;-84
2023/10/28 10:40:41;;;;;;;8.32;6.38;;;8.50;99.90;;;;;;4991170;28;20094;-85
2023/10/28 10:43:08;;;;;;;10.50;6.47;;;8.50;99.90;;;;;;4994959;28;20030;-84
2023/10/28 10:45:34;;;;;;;9.00;6.47;;;8.50;99.90;;;;;;4994420;28;20023;-84
2023/10/28 10:48:01;;;;;;;11.93;6.65;;;8.50;99.90;;;;;;4992217;28;20090;-84
2023/10/28 10:50:27;;;;;;;9.50;6.15;;;8.50;99.90;;;;;;4997106;28;20108;-86
2023/10/28 10:52:54;;;;;;;9.93;6.43;;;8.50;99.90;;;;;;4993531;28;20053;-85
2023/10/28 10:55:23;;;;;;;11.00;5.97;;;8.60;99.90;;;;;;4994472;28;20097;-85
2023/10/28 10:57:52;;;;;;;9.35;5.80;;;8.60;99.90;;;;;;5005806;28;20026;-86
2023/10/28 11:00:18;;;;;;;10.75;6.28;;;8.60;99.90;;;;;;5008057;28;20102;-86
2023/10/28 11:02:45;;;;;;;9.13;6.18;;;8.60;99.90;;;;;;5017391;28;20202;-85
2023/10/28 11:05:12;;;;;;;9.65;6.35;;;8.60;99.90;;;;;;4997225;28;20034;-86
2023/10/28 11:07:38;;;;;;;10.57;5.97;;;8.60;99.90;;;;;;5004773;28;20036;-85
2023/10/28 11:10:08;;;;;;;7.60;5.95;;;8.70;99.90;;;;;;5006942;28;20030;-86
2023/10/28 11:12:34;;;;;;;9.00;6.22;;;8.70;99.90;;;;;;4999000;28;20442;-85
2023/10/28 11:15:00;;;;;;;8.38;5.57;;;8.70;99.90;;;;;;5001088;28;20069;-84
2023/10/28 11:17:26;;;;;;;7.43;5.82;;;8.70;99.90;;;;;;4993807;28;20026;-85
2023/10/28 11:19:52;;;;;;;10.35;6.18;;;8.70;99.90;;;;;;4998718;28;20069;-85
2023/10/28 11:22:18;;;;;;;9.93;6.65;;;8.70;99.90;;;;;;4996204;28;20053;-85
2023/10/28 11:24:44;;;;;;;8.77;6.28;;;8.70;99.90;;;;;;4995380;28;20034;-84
2023/10/28 11:27:18;;;;;;;10.27;6.40;;;8.70;99.90;;;;;;4999850;28;20041;-85
2023/10/28 11:29:44;;;;;;;11.00;6.63;;;8.70;99.90;;;;;;5000012;28;20516;-84
2023/10/28 11:32:10;;;;;;;9.45;6.47;;;8.80;99.90;;;;;;5001494;28;20034;-85
2023/10/28 11:34:39;;;;;;;8.73;6.20;;;8.80;99.90;;;;;;5002334;28;20045;-86
2023/10/28 11:40:53;;;;;;;11.63;5.60;;;8.80;99.90;;;;;;4999910;28;20045;-84
2023/10/28 11:43:19;;;;;;;8.07;5.07;;;8.80;99.90;;;;;;4996597;28;20029;-85
2023/10/28 11:45:45;;;;;;;8.02;5.65;;;8.90;99.90;;;;;;4997172;28;20018;-85
2023/10/28 11:48:11;;;;;;;7.53;4.82;;;8.90;99.90;;;;;;4986948;28;20023;-85
2023/10/28 11:50:36;;;;;;;9.75;6.35;;;8.90;99.90;;;;;;4997000;28;20901;-85
2023/10/28 11:53:02;;;;;;;8.68;6.18;;;8.90;99.90;;;;;;4994485;28;20101;-85
2023/10/28 11:55:30;;;;;;;8.68;5.32;;;8.90;99.90;;;;;;4995318;28;20076;-84
2023/10/28 11:57:56;;;;;;;8.32;5.43;;;8.90;99.90;;;;;;4993099;28;20026;-84
2023/10/28 12:00:22;;;;;;;8.98;5.50;;;8.90;99.90;;;;;;4994307;28;20096;-84
2023/10/28 12:02:48;;;;;;;7.70;4.88;;;9.00;99.90;;;;;;4993436;28;20022;-84
2023/10/28 12:05:13;;;;;;;8.65;5.03;;;9.00;99.90;;;;;;4995782;28;20041;-85
2023/10/28 12:07:41;;;;;;;6.90;4.72;;;9.00;99.90;;;;;;4998504;28;20034;-84
2023/10/28 12:10:07;;;;;;;6.70;5.00;;;9.10;99.90;;;;;;4992738;28;20029;-84
2023/10/28 12:12:33;;;;;;;10.95;4.97;;;9.10;99.90;;;;;;4991801;28;20029;-85
2023/10/28 12:14:58;;;;;;;6.85;4.55;;;9.10;99.90;;;;;;4994130;28;20026;-85
2023/10/28 12:17:24;;;;;;;8.93;4.75;;;9.20;99.90;;;;;;4991372;28;20040;-85
2023/10/28 12:19:51;;;;;;;7.10;4.47;;;9.20;99.90;;;;;;4994780;28;20010;-85
2023/10/28 12:22:17;;;;;;;7.00;5.00;;;9.20;99.90;;;;;;4992524;28;20019;-85
2023/10/28 12:24:42;;;;;;;8.30;4.68;;;9.20;99.90;;;;;;4996388;28;20106;-84
2023/10/28 12:27:09;;;;;;;8.85;5.03;;;9.20;99.90;;;;;;4993263;28;20022;-85
2023/10/28 12:29:35;;;;;;;5.95;3.95;;;9.20;99.90;;;;;;4996009;28;20029;-85
2023/10/28 12:32:00;;;;;;;7.88;5.28;;;9.20;99.90;;;;;;4998584;28;20041;-85
2023/10/28 12:34:26;;;;;;;14.20;5.97;;;9.20;99.90;;;;;;4993135;28;20026;-85
2023/10/28 12:36:51;;;;;;;7.38;5.35;;;9.20;99.90;;;;;;4987804;28;20045;-85
2023/10/28 12:39:17;;;;;;;11.55;5.20;;;9.20;99.90;;;;;;4990591;28;20022;-85
2023/10/28 12:41:44;;;;;;;5.57;4.85;;;9.20;99.90;;;;;;4993506;28;20764;-85
2023/10/28 12:44:10;;;;;;;11.80;5.32;;;9.20;99.90;;;;;;4991904;28;20033;-84
2023/10/28 12:46:36;;;;;;;7.30;5.38;;;9.30;99.90;;;;;;4984959;28;20023;-85
2023/10/28 12:49:01;;;;;;;10.50;5.32;;;9.20;99.90;;;;;;4989054;28;20022;-84
2023/10/28 12:51:27;;;;;;;7.18;4.75;;;9.30;99.90;;;;;;4990850;28;20030;-85
2023/10/28 12:53:54;;;;;;;7.55;5.22;;;9.20;99.90;;;;;;4998842;28;20037;-87
2023/10/28 12:56:19;;;;;;;12.30;6.43;;;9.20;99.90;;;;;;5011690;28;20022;-84